Time;durP1;ratioP1;P1;durP2;ratioP2;P2;SDS_P1;SDS_P2;PMS_P1;PMS_P2;Temp;Humidity;BMP_temperature;BMP_pressure;BME280_temperature;BME280_humidity;BME280_pressure;Samples;Min_cycle;Max_cycle;Signal;HPM_P1;HPM_P2
2022/11/17 00:00:29;;;;;;;30.52;22.10;;;8.10;99.90;;;;;;5056836;28;20100;-45
2022/11/17 00:02:54;;;;;;;30.20;20.13;;;8.20;99.90;;;;;;5056408;28;20476;-47
2022/11/17 00:05:20;;;;;;;30.27;22.35;;;8.20;99.90;;;;;;5055535;28;20052;-46
2022/11/17 00:07:47;;;;;;;29.33;22.45;;;8.20;99.90;;;;;;5055799;28;20447;-41
2022/11/17 00:10:14;;;;;;;32.95;21.77;;;8.20;99.90;;;;;;5055689;28;20055;-43
2022/11/17 00:15:24;;;;;;;30.15;21.13;;;8.20;99.90;;;;;;5055775;28;20388;-48
2022/11/17 00:21:17;;;;;;;27.20;20.33;;;8.20;99.90;;;;;;5055373;28;20682;-45
2022/11/17 00:23:45;;;;;;;30.70;21.42;;;8.20;99.90;;;;;;5052864;28;20124;-42
2022/11/17 00:26:23;;;;;;;30.48;22.17;;;8.20;99.90;;;;;;5055769;28;20044;-46
2022/11/17 00:28:53;;;;;;;30.75;21.23;;;8.20;99.90;;;;;;5054533;28;20108;-46
2022/11/17 00:34:05;;;;;;;29.27;20.48;;;8.20;99.90;;;;;;5053431;28;20523;-43
2022/11/17 00:36:39;;;;;;;30.25;21.20;;;8.30;99.90;;;;;;5056382;28;20046;-45
2022/11/17 00:39:06;;;;;;;29.30;20.85;;;8.30;99.90;;;;;;5055336;28;20875;-43
2022/11/17 00:41:32;;;;;;;29.73;21.55;;;8.30;99.90;;;;;;5050349;28;20044;-49
2022/11/17 00:43:58;;;;;;;34.53;22.48;;;8.30;99.90;;;;;;5055001;28;20384;-48
2022/11/17 00:46:23;;;;;;;33.45;21.17;;;8.30;99.90;;;;;;5056507;28;20048;-43
2022/11/17 00:48:49;;;;;;;27.63;20.17;;;8.40;99.90;;;;;;5056088;28;20118;-45
2022/11/17 00:51:15;;;;;;;30.42;21.73;;;8.30;99.90;;;;;;5054779;28;20106;-48
2022/11/17 00:53:40;;;;;;;28.17;20.80;;;8.30;99.90;;;;;;5055062;28;20109;-47
2022/11/17 00:56:06;;;;;;;26.67;20.35;;;8.40;99.90;;;;;;5054571;28;20060;-48
2022/11/17 00:58:34;;;;;;;26.38;21.45;;;8.40;99.90;;;;;;5054206;28;20036;-46
2022/11/17 01:01:00;;;;;;;25.92;21.35;;;8.40;99.90;;;;;;5053753;28;20104;-47
2022/11/17 01:03:25;;;;;;;27.67;21.42;;;8.40;99.90;;;;;;5054852;28;20238;-45
2022/11/17 01:05:51;;;;;;;27.52;20.95;;;8.40;99.90;;;;;;5055657;28;20071;-46
2022/11/17 01:08:16;;;;;;;26.48;19.40;;;8.40;99.90;;;;;;5054882;28;20048;-46
2022/11/17 01:10:42;;;;;;;24.98;20.10;;;8.40;99.90;;;;;;5054738;28;20345;-42
2022/11/17 01:13:08;;;;;;;24.05;19.45;;;8.40;99.90;;;;;;5054961;28;20545;-42
2022/11/17 01:15:34;;;;;;;24.42;19.92;;;8.50;99.90;;;;;;5054433;28;20458;-46
2022/11/17 01:17:59;;;;;;;28.45;20.27;;;8.50;99.90;;;;;;5054371;28;20608;-49
2022/11/17 01:20:25;;;;;;;24.75;19.73;;;8.50;99.90;;;;;;5055042;28;20637;-42
2022/11/17 01:22:53;;;;;;;22.48;17.58;;;8.40;99.90;;;;;;5051355;28;20483;-50
2022/11/17 01:25:19;;;;;;;22.00;16.73;;;8.50;99.90;;;;;;5054578;28;20334;-45
2022/11/17 01:27:45;;;;;;;22.85;17.70;;;8.50;99.90;;;;;;5054317;28;20044;-46
2022/11/17 01:30:11;;;;;;;22.10;17.45;;;8.50;99.90;;;;;;5054123;28;20051;-46
2022/11/17 01:32:37;;;;;;;25.95;17.02;;;8.50;99.90;;;;;;5053760;28;20056;-42
2022/11/17 01:35:02;;;;;;;21.33;18.67;;;8.50;99.90;;;;;;5054992;28;20063;-46
2022/11/17 01:37:28;;;;;;;21.25;16.63;;;8.50;99.90;;;;;;5054264;28;20063;-45
2022/11/17 01:39:54;;;;;;;23.77;17.45;;;8.50;99.90;;;;;;5054584;28;20052;-42
2022/11/17 01:42:22;;;;;;;21.25;17.52;;;8.60;99.90;;;;;;5050974;28;20554;-50
2022/11/17 01:45:01;;;;;;;23.75;17.52;;;8.50;99.90;;;;;;5052723;28;20498;-49
2022/11/17 01:47:30;;;;;;;22.23;17.13;;;8.50;99.90;;;;;;5054458;28;20049;-42
2022/11/17 01:50:02;;;;;;;19.17;17.17;;;8.50;99.90;;;;;;5055795;28;20052;-48
2022/11/17 01:52:29;;;;;;;24.37;17.60;;;8.50;99.90;;;;;;5054398;28;20054;-45
2022/11/17 01:54:57;;;;;;;21.67;17.95;;;8.50;99.90;;;;;;5052891;28;20818;-49
2022/11/17 01:57:28;;;;;;;22.70;17.13;;;8.50;99.90;;;;;;5054040;28;20045;-49
2022/11/17 02:00:00;;;;;;;18.98;16.38;;;8.50;99.90;;;;;;5054339;28;20056;-50
2022/11/17 02:02:26;;;;;;;22.58;17.25;;;8.40;99.90;;;;;;5054784;28;20876;-48
2022/11/17 02:05:07;;;;;;;20.80;16.02;;;8.40;99.90;;;;;;5054065;28;20090;-48
2022/11/17 02:07:39;;;;;;;22.48;17.13;;;8.40;99.90;;;;;;5052545;28;20048;-43
2022/11/17 02:10:05;;;;;;;19.95;16.15;;;8.30;99.90;;;;;;5054124;28;20135;-43
2022/11/17 02:12:32;;;;;;;21.15;15.77;;;8.40;99.90;;;;;;5054197;28;20601;-49
2022/11/17 02:14:59;;;;;;;21.58;16.73;;;8.40;99.90;;;;;;5053857;28;20052;-43
2022/11/17 02:17:45;;;;;;;23.90;17.60;;;8.40;99.90;;;;;;5054265;28;20536;-43
2022/11/17 02:20:12;;;;;;;21.95;18.25;;;8.40;99.90;;;;;;5039952;28;20317;-46
2022/11/17 02:23:10;;;;;;;24.60;18.15;;;8.30;99.90;;;;;;5051910;28;20049;-42
2022/11/17 02:25:51;;;;;;;23.50;18.55;;;8.30;99.90;;;;;;5045210;28;20052;-47
2022/11/17 02:28:19;;;;;;;23.92;19.00;;;8.20;99.90;;;;;;5054196;28;20052;-46
2022/11/17 02:31:02;;;;;;;20.27;16.20;;;8.30;99.90;;;;;;5054724;28;20447;-44
2022/11/17 02:33:33;;;;;;;21.60;17.37;;;8.20;99.90;;;;;;5053815;28;20059;-43
2022/11/17 02:36:11;;;;;;;26.17;19.67;;;8.20;99.90;;;;;;5054010;28;20052;-49
2022/11/17 02:39:17;;;;;;;29.10;20.20;;;8.10;99.90;;;;;;5053086;28;20056;-44
2022/11/17 02:41:57;;;;;;;25.83;19.60;;;8.20;99.90;;;;;;5042006;28;20067;-44
2022/11/17 02:44:36;;;;;;;24.38;18.88;;;8.10;99.90;;;;;;5053547;28;20127;-46
2022/11/17 02:47:22;;;;;;;27.63;18.85;;;8.20;99.90;;;;;;5053343;28;20056;-47
2022/11/17 02:49:55;;;;;;;23.33;18.88;;;8.20;99.90;;;;;;5055038;28;20044;-48
2022/11/17 02:52:21;;;;;;;26.40;20.63;;;8.00;99.90;;;;;;5036582;28;20427;-49
2022/11/17 02:54:47;;;;;;;25.00;19.77;;;8.10;99.90;;;;;;5052504;28;20491;-47
2022/11/17 02:57:32;;;;;;;26.15;19.65;;;8.10;99.90;;;;;;5052807;28;20051;-47
2022/11/17 03:00:12;;;;;;;25.48;19.70;;;8.10;99.90;;;;;;5054109;28;20131;-45
2022/11/17 03:02:52;;;;;;;25.35;19.80;;;8.00;99.90;;;;;;5042001;28;20542;-47
2022/11/17 03:05:57;;;;;;;23.88;18.38;;;8.10;99.90;;;;;;5051447;28;20063;-46
2022/11/17 03:08:58;;;;;;;25.38;19.10;;;8.10;99.90;;;;;;5052269;28;20631;-50
2022/11/17 03:11:36;;;;;;;22.58;17.73;;;8.10;99.90;;;;;;5030647;28;20049;-49
2022/11/17 03:14:26;;;;;;;25.77;19.20;;;8.00;99.90;;;;;;5030012;28;20064;-51
2022/11/17 03:17:10;;;;;;;28.05;19.65;;;8.00;99.90;;;;;;5012725;28;20084;-47
2022/11/17 03:19:42;;;;;;;29.33;20.90;;;7.90;99.90;;;;;;5032500;28;20172;-48
2022/11/17 03:22:16;;;;;;;24.75;17.92;;;7.90;99.90;;;;;;5019935;28;20052;-52
2022/11/17 03:25:04;;;;;;;21.90;17.00;;;7.90;99.90;;;;;;5013356;28;20556;-51
2022/11/17 03:27:35;;;;;;;25.17;18.50;;;8.00;99.90;;;;;;5013567;28;20522;-48
2022/11/17 03:30:05;;;;;;;24.60;18.83;;;8.10;99.90;;;;;;4998259;28;20053;-51
2022/11/17 03:32:38;;;;;;;27.45;19.50;;;8.10;99.90;;;;;;5012978;28;20206;-50
2022/11/17 03:35:11;;;;;;;28.42;20.33;;;8.10;99.90;;;;;;5013565;28;20091;-50
2022/11/17 03:37:42;;;;;;;22.77;17.85;;;8.00;99.90;;;;;;5012990;28;20116;-51
2022/11/17 03:40:11;;;;;;;25.33;18.55;;;7.90;99.90;;;;;;5013651;28;20199;-49
2022/11/17 03:42:43;;;;;;;23.63;16.73;;;8.00;99.90;;;;;;5013692;28;20053;-48
2022/11/17 03:45:18;;;;;;;20.67;16.77;;;7.90;99.90;;;;;;5021965;28;20528;-49
2022/11/17 03:47:45;;;;;;;24.77;18.45;;;8.00;99.90;;;;;;5041539;28;20518;-47
2022/11/17 03:50:35;;;;;;;27.52;19.88;;;7.90;99.90;;;;;;5056790;28;20571;-50
2022/11/17 03:53:04;;;;;;;23.08;17.85;;;8.10;99.90;;;;;;5057054;28;20044;-49
2022/11/17 03:55:40;;;;;;;25.02;17.33;;;8.00;99.90;;;;;;5056290;28;20044;-46
2022/11/17 03:58:10;;;;;;;24.77;18.60;;;8.00;99.90;;;;;;5054662;28;20044;-47
2022/11/17 04:00:39;;;;;;;19.60;14.55;;;8.00;99.90;;;;;;5056251;28;20041;-49
2022/11/17 04:03:04;;;;;;;25.65;18.48;;;7.90;99.90;;;;;;5055823;28;20198;-51
2022/11/17 04:05:30;;;;;;;22.92;17.00;;;8.00;99.90;;;;;;5056269;28;20163;-50
2022/11/17 04:07:56;;;;;;;21.98;17.17;;;7.90;99.90;;;;;;5055941;28;20194;-48
2022/11/17 04:10:24;;;;;;;26.13;17.45;;;7.90;99.90;;;;;;5056367;28;20044;-51
2022/11/17 04:18:21;;;;;;;19.77;15.98;;;8.00;99.90;;;;;;5055179;28;20055;-51
2022/11/17 04:20:52;;;;;;;17.90;14.20;;;8.00;99.90;;;;;;5056435;28;20055;-46
2022/11/17 04:23:18;;;;;;;17.33;14.02;;;8.00;99.90;;;;;;5053196;28;20079;-47
2022/11/17 04:28:38;;;;;;;18.67;13.15;;;8.10;99.90;;;;;;5043664;28;20101;-51
2022/11/17 04:31:25;;;;;;;18.45;13.98;;;8.00;99.90;;;;;;5052801;28;20680;-46
2022/11/17 04:33:52;;;;;;;17.42;14.00;;;8.10;99.90;;;;;;5055130;28;20048;-47
2022/11/17 04:36:22;;;;;;;21.50;14.52;;;8.00;99.90;;;;;;5056520;28;20426;-46
2022/11/17 04:38:50;;;;;;;18.38;13.45;;;7.90;99.90;;;;;;5055674;28;20044;-49
2022/11/17 04:44:03;;;;;;;18.65;13.85;;;8.00;99.90;;;;;;5054922;28;20165;-46
2022/11/17 04:46:30;;;;;;;15.30;13.00;;;8.00;99.90;;;;;;5055371;28;20060;-51
2022/11/17 04:48:57;;;;;;;17.23;12.90;;;8.00;99.90;;;;;;5053808;28;20060;-47
2022/11/17 04:51:24;;;;;;;16.02;12.75;;;7.90;99.90;;;;;;5054229;28;20083;-52
2022/11/17 04:53:50;;;;;;;16.40;13.10;;;7.90;99.90;;;;;;5055141;28;20052;-48
2022/11/17 04:56:17;;;;;;;15.02;12.18;;;7.90;99.90;;;;;;5055436;28;20297;-48
2022/11/17 04:58:42;;;;;;;17.58;14.27;;;8.00;99.90;;;;;;5054718;28;20473;-49
2022/11/17 05:01:11;;;;;;;20.23;14.02;;;8.00;99.90;;;;;;5046284;28;20094;-46
2022/11/17 05:03:52;;;;;;;18.55;14.75;;;8.00;99.90;;;;;;5050483;28;20108;-47
2022/11/17 05:06:40;;;;;;;19.65;14.40;;;7.90;99.90;;;;;;5052093;28;20652;-47
2022/11/17 05:09:10;;;;;;;15.25;13.65;;;8.00;99.90;;;;;;5055207;28;20083;-45
2022/11/17 05:14:22;;;;;;;16.58;12.90;;;8.00;99.90;;;;;;5054654;28;20059;-48
2022/11/17 05:17:05;;;;;;;17.85;13.85;;;7.90;99.90;;;;;;5053071;28;20368;-46
2022/11/17 05:19:32;;;;;;;;;;;7.90;99.90;;;;;;5055210;28;20359;-52
2022/11/17 05:21:58;;;;;;;15.80;13.18;;;8.00;99.90;;;;;;5051559;28;19963;-49
2022/11/17 05:24:24;;;;;;;19.10;15.02;;;8.00;99.90;;;;;;5053424;28;20059;-49
2022/11/17 05:26:50;;;;;;;14.40;12.10;;;7.90;99.90;;;;;;5054879;28;20068;-48
2022/11/17 05:29:18;;;;;;;14.60;12.98;;;7.90;99.90;;;;;;5054821;28;20502;-47
2022/11/17 05:31:44;;;;;;;15.48;12.20;;;7.90;99.90;;;;;;5055146;28;20853;-49
2022/11/17 05:34:11;;;;;;;14.00;12.40;;;8.00;99.90;;;;;;5054669;28;20048;-46
2022/11/17 05:36:38;;;;;;;14.30;11.63;;;7.90;99.90;;;;;;5053873;28;20052;-47
2022/11/17 05:39:04;;;;;;;13.40;12.00;;;7.90;99.90;;;;;;5054431;28;20052;-49
2022/11/17 05:41:30;;;;;;;13.32;11.38;;;8.00;99.90;;;;;;5050533;28;20399;-46
2022/11/17 05:43:57;;;;;;;12.43;11.07;;;7.80;99.90;;;;;;5054660;28;20055;-50
2022/11/17 05:46:23;;;;;;;12.38;11.13;;;7.90;99.90;;;;;;5053608;28;20056;-48
2022/11/17 05:48:50;;;;;;;16.45;12.65;;;7.80;99.90;;;;;;5054110;28;20045;-49
2022/11/17 05:51:17;;;;;;;15.20;11.75;;;7.80;99.90;;;;;;5055165;28;20044;-46
2022/11/17 05:53:43;;;;;;;12.90;11.60;;;7.90;99.90;;;;;;5053562;28;20048;-47
2022/11/17 05:56:23;;;;;;;12.88;10.70;;;7.80;99.90;;;;;;5055004;28;20137;-45
2022/11/17 05:58:53;;;;;;;14.20;11.90;;;7.80;99.90;;;;;;5055339;28;20051;-50
2022/11/17 06:01:21;;;;;;;11.65;10.45;;;7.70;99.90;;;;;;5055044;28;20056;-49
2022/11/17 06:03:54;;;;;;;12.43;10.75;;;7.70;99.90;;;;;;5053069;28;20060;-48
2022/11/17 06:06:21;;;;;;;11.43;9.15;;;7.70;99.90;;;;;;5054433;28;20080;-47
2022/11/17 06:08:46;;;;;;;12.05;10.85;;;7.70;99.90;;;;;;5041031;28;20052;-46
2022/11/17 06:11:13;;;;;;;11.15;10.00;;;7.70;99.90;;;;;;5053612;28;20090;-46
2022/11/17 06:13:38;;;;;;;12.82;11.00;;;7.70;99.90;;;;;;5053591;28;20079;-46
2022/11/17 06:16:08;;;;;;;10.77;9.60;;;7.60;99.90;;;;;;5053862;28;20152;-50
2022/11/17 06:18:39;;;;;;;11.52;10.32;;;7.60;99.90;;;;;;5053419;28;20056;-48
2022/11/17 06:21:06;;;;;;;13.25;11.77;;;7.70;99.90;;;;;;5052055;28;20054;-47
2022/11/17 06:23:34;;;;;;;12.23;10.93;;;7.60;99.90;;;;;;5052219;28;20125;-46
2022/11/17 06:26:02;;;;;;;12.95;11.23;;;7.60;99.90;;;;;;5054538;28;20443;-47
2022/11/17 06:28:29;;;;;;;12.38;11.07;;;7.60;99.90;;;;;;5055060;28;20195;-46
2022/11/17 06:30:56;;;;;;;11.48;9.95;;;7.60;99.90;;;;;;5055360;28;20040;-50
2022/11/17 06:33:22;;;;;;;11.18;10.07;;;7.40;99.90;;;;;;5053958;28;20411;-49
2022/11/17 06:35:48;;;;;;;10.15;9.15;;;7.50;99.90;;;;;;5054323;28;20049;-47
2022/11/17 06:38:14;;;;;;;10.35;9.27;;;7.50;99.90;;;;;;5052706;28;20076;-48
2022/11/17 06:40:41;;;;;;;12.70;9.77;;;7.40;99.90;;;;;;5032194;28;20159;-49
2022/11/17 06:43:09;;;;;;;10.13;9.02;;;7.30;99.90;;;;;;5054105;28;20774;-46
2022/11/17 06:45:54;;;;;;;11.07;9.95;;;7.30;99.90;;;;;;5054627;28;20512;-46
2022/11/17 06:48:26;;;;;;;12.27;10.98;;;7.30;99.90;;;;;;5053626;28;20051;-48
2022/11/17 06:50:53;;;;;;;12.00;10.75;;;7.30;99.90;;;;;;5054394;28;20052;-49
2022/11/17 06:53:21;;;;;;;10.88;9.63;;;7.30;99.90;;;;;;5054342;28;20052;-47
2022/11/17 06:56:10;;;;;;;12.05;10.15;;;7.30;99.90;;;;;;5058569;28;20527;-47
2022/11/17 06:58:37;;;;;;;11.82;10.27;;;7.30;99.90;;;;;;5057403;28;20048;-48
2022/11/17 07:01:09;;;;;;;13.25;11.07;;;7.20;99.90;;;;;;5058001;28;20055;-46
2022/11/17 07:03:36;;;;;;;12.10;10.85;;;7.20;99.90;;;;;;5057708;28;20044;-47
2022/11/17 07:06:04;;;;;;;11.20;10.05;;;7.20;99.90;;;;;;5058642;28;20580;-45
2022/11/17 07:08:30;;;;;;;13.07;10.80;;;7.20;99.90;;;;;;5057237;28;20060;-49
2022/11/17 07:11:01;;;;;;;11.95;10.75;;;7.20;99.90;;;;;;5057602;28;20071;-47
2022/11/17 07:13:27;;;;;;;11.02;9.93;;;7.20;99.90;;;;;;5057686;28;20056;-45
2022/11/17 07:15:52;;;;;;;11.35;9.88;;;7.20;99.90;;;;;;5057996;28;20048;-50
2022/11/17 07:18:19;;;;;;;12.32;9.73;;;7.20;99.90;;;;;;5056907;28;20477;-46
2022/11/17 07:20:46;;;;;;;10.75;9.65;;;7.20;99.90;;;;;;5058087;28;20044;-49
2022/11/17 07:23:12;;;;;;;12.45;11.00;;;7.30;99.90;;;;;;5052059;28;20441;-47
2022/11/17 07:25:38;;;;;;;12.10;10.23;;;7.20;99.90;;;;;;5057073;28;20131;-49
2022/11/17 07:28:04;;;;;;;11.85;10.65;;;7.20;99.90;;;;;;5057600;28;20123;-45
2022/11/17 07:30:30;;;;;;;10.70;9.10;;;7.20;99.90;;;;;;5056198;28;20054;-46
2022/11/17 07:32:59;;;;;;;9.48;8.57;;;7.20;99.90;;;;;;5056712;28;20048;-47
2022/11/17 07:35:25;;;;;;;10.52;9.43;;;7.30;99.90;;;;;;5057833;28;20052;-51
2022/11/17 07:37:55;;;;;;;11.40;9.57;;;7.20;99.90;;;;;;5056707;28;20125;-46
2022/11/17 07:40:20;;;;;;;11.27;10.07;;;7.20;99.90;;;;;;5054457;28;20361;-48
2022/11/17 07:42:49;;;;;;;11.65;10.07;;;7.30;99.90;;;;;;5054449;28;20549;-47
2022/11/17 07:45:15;;;;;;;11.27;10.07;;;7.20;99.90;;;;;;5056537;28;20380;-46
2022/11/17 07:47:40;;;;;;;11.40;10.20;;;7.20;99.90;;;;;;5056372;28;20438;-47
2022/11/17 07:50:06;;;;;;;9.07;7.85;;;7.20;99.90;;;;;;5056636;28;20063;-45
2022/11/17 07:52:32;;;;;;;11.65;9.85;;;7.10;99.90;;;;;;5055914;28;20048;-47
2022/11/17 07:54:58;;;;;;;10.32;9.02;;;7.20;99.90;;;;;;5056502;28;20064;-45
2022/11/17 07:57:24;;;;;;;12.07;10.90;;;7.20;99.90;;;;;;5055121;28;20044;-45
2022/11/17 07:59:50;;;;;;;11.85;10.35;;;7.30;99.90;;;;;;5055947;28;20118;-51
2022/11/17 08:02:15;;;;;;;11.77;10.57;;;7.20;99.90;;;;;;5055803;28;20044;-50
2022/11/17 08:04:41;;;;;;;11.32;9.23;;;7.20;99.90;;;;;;5054786;28;20059;-47
2022/11/17 08:07:07;;;;;;;11.55;9.65;;;7.30;99.90;;;;;;5055784;28;20067;-47
2022/11/17 08:09:32;;;;;;;10.77;9.48;;;7.30;99.90;;;;;;5056683;28;20044;-48
2022/11/17 08:11:58;;;;;;;12.90;10.38;;;7.20;99.90;;;;;;5056666;28;20410;-48
2022/11/17 08:14:23;;;;;;;11.57;10.07;;;7.10;99.90;;;;;;5056177;28;20187;-46
2022/11/17 08:16:49;;;;;;;12.50;9.18;;;7.20;99.90;;;;;;5054788;28;20056;-48
2022/11/17 08:19:15;;;;;;;11.65;10.23;;;7.10;99.90;;;;;;5056076;28;20478;-46
2022/11/17 08:21:41;;;;;;;9.80;8.82;;;7.10;99.90;;;;;;5053782;28;20494;-49
2022/11/17 08:24:06;;;;;;;10.70;9.60;;;7.10;99.90;;;;;;5055699;28;20055;-45
2022/11/17 08:26:32;;;;;;;11.40;9.15;;;7.10;99.90;;;;;;5054959;28;20138;-46
2022/11/17 08:29:00;;;;;;;11.45;10.35;;;7.10;99.90;;;;;;5056721;28;20098;-47
2022/11/17 08:31:26;;;;;;;11.13;9.35;;;7.10;99.90;;;;;;5038424;28;20365;-50
2022/11/17 08:33:51;;;;;;;9.52;8.52;;;7.10;99.90;;;;;;5056429;28;20071;-46
2022/11/17 08:36:17;;;;;;;11.23;9.38;;;7.20;99.90;;;;;;5054523;28;20052;-48
2022/11/17 08:38:43;;;;;;;9.85;8.82;;;7.20;99.90;;;;;;5055956;28;20406;-46
2022/11/17 08:41:09;;;;;;;9.65;8.65;;;7.20;99.90;;;;;;5051057;28;20510;-45
2022/11/17 08:43:35;;;;;;;10.02;8.95;;;7.10;99.90;;;;;;5054099;28;20512;-46
2022/11/17 08:46:01;;;;;;;13.38;9.65;;;7.20;99.90;;;;;;5055848;28;20048;-45
2022/11/17 08:48:28;;;;;;;12.85;10.15;;;7.10;99.90;;;;;;5055537;28;20189;-47
2022/11/17 08:50:54;;;;;;;10.35;9.25;;;7.20;99.90;;;;;;5055553;28;20056;-48
2022/11/17 08:53:21;;;;;;;11.90;10.55;;;7.20;99.90;;;;;;5055103;28;20045;-48
2022/11/17 08:55:48;;;;;;;11.30;9.75;;;7.30;99.90;;;;;;5055276;28;20529;-45
2022/11/17 08:58:14;;;;;;;9.75;8.75;;;7.20;99.90;;;;;;5054844;28;20084;-47
2022/11/17 09:00:40;;;;;;;9.23;8.32;;;7.30;99.90;;;;;;5055404;28;20127;-48
2022/11/17 09:03:10;;;;;;;10.60;9.38;;;7.30;99.90;;;;;;5055278;28;20437;-46
2022/11/17 09:05:40;;;;;;;10.20;9.20;;;7.20;99.90;;;;;;5043318;28;20052;-49
2022/11/17 09:08:07;;;;;;;10.25;8.65;;;7.40;99.90;;;;;;5055041;28;20199;-47
2022/11/17 09:10:36;;;;;;;11.38;10.18;;;7.30;99.90;;;;;;5056070;28;20061;-46
2022/11/17 09:13:02;;;;;;;12.30;10.02;;;7.40;99.90;;;;;;5054976;28;20053;-47
2022/11/17 09:15:27;;;;;;;10.38;9.32;;;7.40;99.90;;;;;;5055539;28;20040;-46
2022/11/17 09:17:53;;;;;;;12.35;10.65;;;7.30;99.90;;;;;;5053100;28;20197;-48
2022/11/17 09:20:19;;;;;;;12.57;11.18;;;7.40;99.90;;;;;;5055443;28;20122;-47
2022/11/17 09:22:45;;;;;;;11.43;10.25;;;7.50;99.90;;;;;;5050772;28;20124;-46
2022/11/17 09:25:12;;;;;;;11.60;10.40;;;7.30;99.90;;;;;;5054687;28;20619;-46
2022/11/17 09:27:37;;;;;;;12.30;11.00;;;7.30;99.90;;;;;;5054685;28;20040;-47
2022/11/17 09:30:03;;;;;;;13.27;11.00;;;7.40;99.90;;;;;;5055580;28;20048;-46
2022/11/17 09:32:29;;;;;;;12.88;11.18;;;7.40;99.90;;;;;;5055322;28;20204;-46
2022/11/17 09:34:55;;;;;;;13.75;11.82;;;7.40;99.90;;;;;;5055235;28;20056;-46
2022/11/17 09:37:21;;;;;;;13.05;11.75;;;7.40;99.90;;;;;;5053221;28;20074;-45
2022/11/17 09:39:47;;;;;;;12.27;9.73;;;7.30;99.90;;;;;;5055716;28;20494;-49
2022/11/17 09:42:15;;;;;;;11.68;10.48;;;7.30;99.90;;;;;;5050121;28;20534;-47
2022/11/17 09:44:46;;;;;;;11.68;10.07;;;7.30;99.90;;;;;;5054624;28;20491;-46
2022/11/17 09:47:39;;;;;;;11.52;10.32;;;7.40;99.90;;;;;;5054286;28;20503;-45
2022/11/17 09:50:41;;;;;;;10.80;9.63;;;7.30;99.90;;;;;;5053984;28;20128;-47
2022/11/17 09:53:34;;;;;;;10.38;9.25;;;7.40;99.90;;;;;;5045143;28;20060;-47
2022/11/17 09:56:02;;;;;;;12.88;10.68;;;7.40;99.90;;;;;;5054018;28;20132;-49
2022/11/17 09:59:03;;;;;;;12.57;11.10;;;7.30;99.90;;;;;;5054889;28;20132;-46
2022/11/17 10:01:29;;;;;;;11.65;10.45;;;7.50;99.90;;;;;;5052621;28;20105;-48
2022/11/17 10:03:58;;;;;;;11.55;10.32;;;7.50;99.90;;;;;;5053856;28;20500;-47
2022/11/17 10:06:31;;;;;;;10.05;9.05;;;7.50;99.90;;;;;;5053586;28;20619;-46
2022/11/17 10:09:25;;;;;;;10.27;9.23;;;7.40;99.90;;;;;;5054735;28;20037;-47
2022/11/17 10:11:53;;;;;;;10.10;8.95;;;7.60;99.90;;;;;;5054518;28;20418;-49
2022/11/17 10:14:22;;;;;;;11.85;10.63;;;7.60;99.90;;;;;;5053049;28;20059;-46
2022/11/17 10:16:56;;;;;;;11.35;10.25;;;7.60;99.90;;;;;;5053950;28;20055;-48
2022/11/17 10:19:35;;;;;;;11.40;10.20;;;7.50;99.90;;;;;;5053835;28;20041;-48
2022/11/17 10:22:01;;;;;;;10.60;9.50;;;7.60;99.90;;;;;;5051489;28;20056;-49
2022/11/17 10:24:45;;;;;;;10.15;9.05;;;7.60;99.90;;;;;;5054238;28;20495;-46
2022/11/17 10:27:19;;;;;;;11.82;9.05;;;7.50;99.90;;;;;;5053677;28;20048;-48
2022/11/17 10:30:08;;;;;;;10.65;9.38;;;7.60;99.90;;;;;;5057344;28;20054;-47
2022/11/17 10:32:45;;;;;;;9.85;8.95;;;7.70;99.90;;;;;;5057374;28;20045;-45
2022/11/17 10:35:18;;;;;;;10.73;9.73;;;7.60;99.90;;;;;;5056922;28;20044;-48
2022/11/17 10:37:57;;;;;;;11.00;9.10;;;7.60;99.90;;;;;;5057163;28;20044;-46
2022/11/17 10:40:26;;;;;;;10.57;9.48;;;7.70;99.90;;;;;;5055134;28;20087;-46
2022/11/17 10:42:59;;;;;;;12.65;10.90;;;7.60;99.90;;;;;;5056976;28;20151;-47
2022/11/17 10:45:25;;;;;;;11.13;9.80;;;7.80;99.90;;;;;;5058355;28;20058;-46
2022/11/17 10:47:50;;;;;;;12.18;10.88;;;7.80;99.90;;;;;;5057386;28;20121;-48
2022/11/17 10:50:26;;;;;;;12.40;10.32;;;7.70;99.90;;;;;;5057656;28;20052;-44
2022/11/17 10:52:54;;;;;;;11.95;10.73;;;7.70;99.90;;;;;;5057455;28;20109;-49
2022/11/17 10:55:23;;;;;;;10.00;8.68;;;7.80;99.90;;;;;;5058407;28;20698;-46
2022/11/17 10:57:53;;;;;;;9.68;8.68;;;7.90;99.90;;;;;;5058216;28;20054;-44
2022/11/17 11:00:34;;;;;;;10.18;9.13;;;8.00;99.90;;;;;;5058218;28;20475;-44
2022/11/17 11:03:20;;;;;;;11.65;10.45;;;8.00;99.90;;;;;;5057419;28;20050;-48
2022/11/17 11:06:18;;;;;;;12.20;10.90;;;8.20;99.90;;;;;;5057826;28;20536;-47
2022/11/17 11:08:48;;;;;;;12.45;11.23;;;8.20;99.90;;;;;;4999363;28;20118;-45
2022/11/17 11:11:41;;;;;;;14.52;11.32;;;8.20;99.90;;;;;;5014514;28;20144;-44
2022/11/17 11:14:16;;;;;;;12.50;11.13;;;8.40;99.90;;;;;;5013984;28;20117;-48
2022/11/17 11:16:45;;;;;;;12.52;11.20;;;8.20;99.90;;;;;;5014263;28;20053;-47
2022/11/17 11:19:14;;;;;;;12.27;9.70;;;8.40;99.90;;;;;;5014286;28;20414;-44
2022/11/17 11:22:02;;;;;;;12.25;10.98;;;8.40;99.90;;;;;;5010497;28;20553;-47
2022/11/17 11:24:41;;;;;;;11.77;10.57;;;8.50;99.90;;;;;;4955236;28;20413;-45
2022/11/17 11:27:18;;;;;;;15.80;12.77;;;8.60;99.90;;;;;;4955498;28;20070;-49
2022/11/17 11:30:05;;;;;;;15.18;12.25;;;8.70;99.90;;;;;;4955124;28;20063;-51
2022/11/17 11:32:38;;;;;;;14.45;12.60;;;8.80;99.90;;;;;;4954874;28;20513;-44
2022/11/17 11:35:34;;;;;;;15.80;13.60;;;8.80;99.90;;;;;;4955394;28;20054;-47
2022/11/17 11:38:41;;;;;;;16.13;12.90;;;8.70;99.90;;;;;;4961909;28;20093;-44
2022/11/17 11:41:34;;;;;;;17.30;12.60;;;8.90;99.90;;;;;;4970353;28;20149;-45
2022/11/17 11:44:31;;;;;;;15.88;11.18;;;8.90;99.90;;;;;;4991631;28;20096;-46
2022/11/17 11:47:14;;;;;;;14.25;11.27;;;9.00;99.90;;;;;;5026861;28;20091;-46
2022/11/17 11:49:46;;;;;;;14.07;11.35;;;9.10;99.90;;;;;;5033448;28;20450;-44
2022/11/17 11:52:26;;;;;;;10.98;9.80;;;9.10;99.90;;;;;;5033348;28;20059;-49
2022/11/17 11:54:54;;;;;;;14.32;10.73;;;9.10;99.90;;;;;;5033566;28;20516;-52
2022/11/17 11:57:27;;;;;;;18.08;12.23;;;9.30;99.90;;;;;;5032996;28;20056;-49
2022/11/17 12:00:03;;;;;;;16.08;9.90;;;9.10;99.90;;;;;;5033474;28;20057;-47
2022/11/17 12:02:41;;;;;;;14.57;9.70;;;9.30;99.90;;;;;;5053698;28;20667;-48
2022/11/17 12:05:15;;;;;;;11.88;7.70;;;9.30;99.90;;;;;;5056394;28;20510;-46
2022/11/17 12:08:05;;;;;;;8.77;5.90;;;9.20;99.90;;;;;;5056302;28;20493;-47
2022/11/17 12:10:55;;;;;;;10.50;5.75;;;9.40;99.90;;;;;;5056533;28;20047;-48
2022/11/17 12:13:23;;;;;;;10.05;3.92;;;9.50;99.90;;;;;;5055865;28;20048;-49
2022/11/17 12:15:49;;;;;;;10.02;5.00;;;9.40;99.90;;;;;;5055995;28;20589;-47
2022/11/17 12:18:18;;;;;;;8.70;3.80;;;9.50;99.90;;;;;;5056345;28;20079;-47
2022/11/17 12:20:53;;;;;;;8.90;4.47;;;9.50;99.90;;;;;;5056858;28;20220;-48
2022/11/17 12:23:22;;;;;;;9.30;3.88;;;9.70;99.90;;;;;;5051709;28;20053;-48
2022/11/17 12:25:52;;;;;;;9.52;3.40;;;9.60;99.90;;;;;;5056265;28;20496;-45
2022/11/17 12:28:38;;;;;;;7.25;3.05;;;9.70;99.90;;;;;;5056840;28;20170;-45
2022/11/17 12:31:22;;;;;;;8.43;3.20;;;9.60;99.90;;;;;;5089365;28;20048;-47
2022/11/17 12:33:51;;;;;;;7.43;2.92;;;9.70;99.90;;;;;;5056798;28;20662;-44
2022/11/17 12:36:23;;;;;;;5.93;3.00;;;9.70;99.90;;;;;;5056080;28;20095;-49
2022/11/17 12:38:50;;;;;;;9.45;3.38;;;9.70;99.90;;;;;;5088992;28;20979;-48
2022/11/17 12:41:49;;;;;;;8.02;2.97;;;9.60;99.90;;;;;;5043283;28;20040;-44
2022/11/17 12:44:37;;;;;;;8.70;3.78;;;9.70;99.90;;;;;;5054177;28;20044;-45
2022/11/17 12:47:20;;;;;;;8.82;3.10;;;9.60;99.90;;;;;;5055365;28;20106;-46
2022/11/17 12:50:07;;;;;;;7.38;2.95;;;9.60;99.90;;;;;;5056244;28;20064;-44
2022/11/17 12:52:57;;;;;;;9.35;2.75;;;9.60;99.90;;;;;;5055112;28;20071;-45
2022/11/17 12:55:28;;;;;;;8.68;3.05;;;9.70;99.90;;;;;;5055860;28;20044;-50
2022/11/17 12:58:02;;;;;;;6.35;2.80;;;9.70;99.90;;;;;;5055859;28;20490;-49
2022/11/17 13:00:35;;;;;;;5.22;2.72;;;9.60;99.90;;;;;;5056145;28;20060;-46
2022/11/17 13:03:18;;;;;;;7.72;2.90;;;9.70;99.90;;;;;;5055979;28;20048;-47
2022/11/17 13:05:44;;;;;;;6.30;2.60;;;9.70;99.90;;;;;;5055623;28;20127;-45
2022/11/17 13:08:13;;;;;;;8.00;3.10;;;9.60;99.90;;;;;;5056212;28;20413;-51
2022/11/17 13:10:40;;;;;;;5.57;2.70;;;9.70;99.90;;;;;;5056094;28;20052;-45
2022/11/17 13:13:22;;;;;;;7.18;2.63;;;9.60;99.90;;;;;;5055246;28;20068;-46
2022/11/17 13:15:52;;;;;;;10.70;3.17;;;9.70;99.90;;;;;;5055578;28;20052;-44
2022/11/17 13:18:27;;;;;;;8.43;2.95;;;9.50;99.90;;;;;;5054644;28;20044;-44
2022/11/17 13:20:53;;;;;;;7.45;3.25;;;9.60;99.90;;;;;;5055741;28;20071;-45
2022/11/17 13:23:22;;;;;;;8.90;3.28;;;9.50;99.90;;;;;;5051539;28;20574;-47
2022/11/17 13:25:49;;;;;;;8.27;3.25;;;9.60;99.90;;;;;;5055112;28;20096;-48